Central Park, Washington
Current Conditions -  °F | °C
As of 11:53 AM on Thursday 27 Nov 2014 (Local Time) from KHQM Reporting Station
Haze Haze  
Wind Chill: 57°   Ceiling: 1000
Heat Index: 57°   Visibility: 6mi
Dew Point: 55°   Wind: 20mph
Humidity: 93%   Direction: 190°S
Pressure: 29.83"   Gusts: NA
Location:  47.1445°N, 123.771°W
Report Text: KHQM 271953Z AUTO 19017KT 6SM BR OVC010 14/13 A2983 RMK AO2 SLP106 T01390128
Loading
Personal Weather Stations






























Interactive Weather Map New forecast layout! Learn more

10-Day Weather Forecast

Advertisements
Track Severe Weather on mobile